Airfield :
LOGIN :

Register | Disclaimer

   EN    FR    IT 

 










Legend :    VFR   Marginal VFR   IFR   Intensive IFR   Very Intensive IFR
Visi :
Ceiling :
>= 8 km
>= 3000ft
5 to 8 km
1000 to 3000 ft
1500m to 5 km
500 to 1000 ft
800 to 1500m
200 to 500 ft
< 800m
< 200 ft
Symbols :   Thunderstorms  Fog  Heavy snow  Heavy precipitations  Wind > 20 kt
SIGMETs :     Misc.  Thunderstorms  Icing  Turbulence  Mountain Waves  Volcanic Ashes






- Airport Elevation : 82 ft
- IATA code : AAR


EKAH - Aarhus Tirstrup

CURRENT METAR :
  • 141250Z AUTO 17006KT 120V220 9999NDV OVC010/// 05/05 Q0978

EXPIRED METARs :
  • 141220Z AUTO 17005KT 120V230 9000NDV OVC008/// 06/05 Q0978
  • 141150Z AUTO 18004KT 130V260 8000NDV OVC008/// 05/05 Q0978
  • 141120Z AUTO 17003KT 6000NDV OVC006/// 05/05 Q0978
  • 141050Z AUTO 14004KT 110V180 4800NDV DZ BR OVC003/// 05/04 Q0979
  • 141020Z AUTO 14006KT 110V200 5000NDV DZ OVC003/// 04/04 Q0979
  • 140950Z AUTO 14006KT 100V170 3100NDV -RA BR OVC003/// 04/04 Q0979

TAF TAF EKAH
Valid from the 14 at 12:00 until the 15 at 12:00 UTC


141108Z 1412/1512 15008KT 3000 -RADZ BR BKN004
BECMG 1412/1414 9999 NSW FEW010 BKN015
TEMPO 1414/1418 4000 SHRA BKN008 BKN015CB
BECMG 1416/1418 25012KT
TEMPO 1418/1502 25015G25KT SHRA BKN008 BKN015CB
BECMG 1506/1508 16012KT -RADZ FEW005 BKN010
TEMPO 1508/1512 3000 -RASN BKN005



MET'MAP, your aeronautical weather chart ! - Copyright ORBIFLY December 2007 - Disclaimer

ORBIFLY MET'MAP TEAM :

Programming & Development : Alexandra Zaïnal
Concept & original design : Baudouin d'Aumeries
Assistance for programming : Marc-Olivier Méhu
Technical & hardware support : Manuel Goepfert

Contact : metmap@orbifly.com




SOURCES & CREDITS :

   NOAA